createdAt,value
2022-12-08T00:00:26.255Z,-1.67
2022-12-08T00:01:26.253Z,-2
2022-12-08T00:02:26.332Z,-1.56
2022-12-08T00:03:26.414Z,-1.28
2022-12-08T00:04:26.256Z,-1.28
2022-12-08T00:05:26.260Z,-1.44
2022-12-08T00:06:26.256Z,-1.56
2022-12-08T00:07:26.264Z,-1.67
2022-12-08T00:08:26.308Z,-1.67
2022-12-08T00:09:26.292Z,-1.56
2022-12-08T00:10:48.279Z,-1.44
2022-12-08T00:11:26.266Z,-1.67
2022-12-08T00:12:26.263Z,-1.44
2022-12-08T00:13:26.266Z,-1.28
2022-12-08T00:14:26.261Z,-1.56
2022-12-08T00:15:26.269Z,-1.44
2022-12-08T00:16:26.338Z,-1.28
2022-12-08T00:17:26.274Z,-1.56
2022-12-08T00:18:26.277Z,-1.44
2022-12-08T00:19:26.275Z,-1.44
2022-12-08T00:20:26.274Z,-1.56
2022-12-08T00:21:26.276Z,-1.56
2022-12-08T00:22:26.269Z,-1.44
2022-12-08T00:23:26.272Z,-1.67
2022-12-08T00:24:26.288Z,-2
2022-12-08T00:25:26.298Z,-1.56
2022-12-08T00:26:26.263Z,-1.67
2022-12-08T00:27:26.275Z,-1.44
2022-12-08T00:28:26.272Z,-1.83
2022-12-08T00:29:26.278Z,-1.83
2022-12-08T00:30:26.274Z,-1.67
2022-12-08T00:31:26.361Z,-1.56
2022-12-08T00:32:26.280Z,-1.44
2022-12-08T00:33:26.273Z,-1.67
2022-12-08T00:34:26.275Z,-1.67
2022-12-08T00:35:26.290Z,-1.67
2022-12-08T00:36:26.280Z,-1.67
2022-12-08T00:37:26.286Z,-1.67
2022-12-08T00:38:26.290Z,-1.56
2022-12-08T00:39:26.290Z,-1.67
2022-12-08T00:40:26.276Z,-1.56
2022-12-08T00:41:26.308Z,-1.28
2022-12-08T00:42:26.292Z,-1.44
2022-12-08T00:43:26.283Z,-1.67
2022-12-08T00:44:26.271Z,-1.56
2022-12-08T00:45:26.287Z,-1.56
2022-12-08T00:46:26.319Z,-1.67
2022-12-08T00:47:26.289Z,-1.67
2022-12-08T00:48:26.289Z,-1.44
2022-12-08T00:49:26.289Z,-1.28
2022-12-08T00:50:26.290Z,-1.28
2022-12-08T00:51:26.288Z,-1.44
2022-12-08T00:52:26.289Z,-1.11
2022-12-08T00:53:26.284Z,-1.28
2022-12-08T00:54:26.283Z,-1
2022-12-08T00:55:26.288Z,-1.44
2022-12-08T00:56:26.282Z,-1
2022-12-08T00:57:26.310Z,-1.44
2022-12-08T00:58:26.290Z,-1
2022-12-08T00:59:26.287Z,-1
2022-12-08T01:00:26.295Z,-1
2022-12-08T01:01:26.329Z,-1.11
2022-12-08T01:02:26.280Z,-1.11
2022-12-08T01:03:26.327Z,-1.11
2022-12-08T01:04:26.280Z,-1.56
2022-12-08T01:05:26.290Z,-1
2022-12-08T01:06:26.292Z,-1.11
2022-12-08T01:07:26.292Z,-0.83
2022-12-08T01:08:26.331Z,-0.83
2022-12-08T01:09:26.291Z,-1.28
2022-12-08T01:10:26.289Z,-1
2022-12-08T01:11:26.293Z,-1.11
2022-12-08T01:12:26.282Z,-1.11
2022-12-08T01:13:26.326Z,-1.56
2022-12-08T01:14:26.287Z,-1.44
2022-12-08T01:15:26.290Z,-1.11
2022-12-08T01:16:26.432Z,-1.28
2022-12-08T01:17:26.293Z,-1.28
2022-12-08T01:18:26.285Z,-1.28
2022-12-08T01:19:26.296Z,-1.44
2022-12-08T01:20:26.287Z,-1.56
2022-12-08T01:21:26.300Z,-1.44
2022-12-08T01:22:26.283Z,-1.56
2022-12-08T01:23:26.302Z,-1.28
2022-12-08T01:24:26.291Z,-1.28
2022-12-08T01:25:26.286Z,-1.56
2022-12-08T01:26:26.290Z,-1.28
2022-12-08T01:27:26.295Z,-1.11
2022-12-08T01:28:26.292Z,-1.44
2022-12-08T01:29:26.323Z,-1.28
2022-12-08T01:30:26.384Z,-1.44
2022-12-08T01:31:26.364Z,-1.56
2022-12-08T01:32:26.296Z,-1.56
2022-12-08T01:33:26.305Z,-1.44
2022-12-08T01:34:26.300Z,-1.44
2022-12-08T01:35:26.305Z,-1.28
2022-12-08T01:36:26.305Z,-1.11
2022-12-08T01:37:26.307Z,-1.28
2022-12-08T01:38:26.319Z,-1
2022-12-08T01:39:26.323Z,-1.11
2022-12-08T01:40:26.305Z,-1.11
2022-12-08T01:41:26.312Z,-1.11
2022-12-08T01:42:26.309Z,-1.56
2022-12-08T01:43:26.303Z,-1.28
2022-12-08T01:44:26.300Z,-0.83
2022-12-08T01:45:26.326Z,-1.11
2022-12-08T01:46:26.391Z,-1.11
2022-12-08T01:47:26.312Z,-1
2022-12-08T01:48:26.344Z,-0.83
2022-12-08T01:49:26.316Z,-1
2022-12-08T01:50:26.305Z,-0.83
2022-12-08T01:51:26.309Z,-1.11
2022-12-08T01:52:26.323Z,-1.28
2022-12-08T01:53:26.319Z,-1.11
2022-12-08T01:54:26.312Z,-1.44
2022-12-08T01:55:26.316Z,-1.28
2022-12-08T01:56:26.313Z,-1.11
2022-12-08T01:57:26.315Z,-1.11
2022-12-08T01:58:26.318Z,-1.28
2022-12-08T01:59:26.323Z,-1.44
2022-12-08T02:00:26.325Z,-1.44
2022-12-08T02:01:26.418Z,-1.11
2022-12-08T02:02:26.362Z,-1
2022-12-08T02:03:26.332Z,-1.11
2022-12-08T02:04:26.326Z,-1
2022-12-08T02:05:26.339Z,-1.11
2022-12-08T02:06:26.313Z,-1.28
2022-12-08T02:07:26.317Z,-1.67
2022-12-08T02:08:26.412Z,-1.28
2022-12-08T02:09:26.336Z,-1.28
2022-12-08T02:10:26.325Z,-1.44
2022-12-08T02:11:26.324Z,-1.56
2022-12-08T02:12:26.339Z,-1.56
2022-12-08T02:13:26.328Z,-1.11
2022-12-08T02:14:26.328Z,-1
2022-12-08T02:15:26.347Z,-1
2022-12-08T02:16:26.406Z,-1
2022-12-08T02:17:26.363Z,-1
2022-12-08T02:18:26.331Z,-0.83
2022-12-08T02:19:30.994Z,-1.11
2022-12-08T02:20:26.333Z,-1.11
2022-12-08T02:21:26.342Z,-1
2022-12-08T02:22:26.338Z,-1.11
2022-12-08T02:23:26.343Z,-1.28
2022-12-08T02:24:26.339Z,-1.56
2022-12-08T02:25:26.349Z,-1.28
2022-12-08T02:26:26.338Z,-1.28
2022-12-08T02:27:26.341Z,-1.11
2022-12-08T02:28:26.338Z,-1.11
2022-12-08T02:29:26.340Z,-1.28
2022-12-08T02:30:26.417Z,-1.28
2022-12-08T02:31:26.419Z,-1.11
2022-12-08T02:32:26.343Z,-1.28
2022-12-08T02:33:26.364Z,-1.28
2022-12-08T02:34:26.340Z,-1.28
2022-12-08T02:35:26.347Z,-1.44
2022-12-08T02:36:26.347Z,-1.56
2022-12-08T02:37:26.382Z,-1.44
2022-12-08T02:38:26.356Z,-1
2022-12-08T02:39:26.352Z,-1.28
2022-12-08T02:40:26.357Z,-1
2022-12-08T02:41:26.358Z,-1.11
2022-12-08T02:42:26.347Z,-1.11
2022-12-08T02:43:26.352Z,-1.11
2022-12-08T02:44:26.352Z,-1.28
2022-12-08T02:45:26.361Z,-1.11
2022-12-08T02:46:26.381Z,-1.28
2022-12-08T02:47:26.370Z,-1.28
2022-12-08T02:48:26.392Z,-1.44
2022-12-08T02:49:26.377Z,-1.28
2022-12-08T02:50:26.352Z,-1.28
2022-12-08T02:51:26.367Z,-1
2022-12-08T02:52:26.353Z,-1.28
2022-12-08T02:53:26.359Z,-0.83
2022-12-08T02:54:26.362Z,-1.11
2022-12-08T02:55:26.361Z,-1.28
2022-12-08T02:56:26.357Z,-1.56
2022-12-08T02:57:26.363Z,-1
2022-12-08T02:58:26.367Z,-1.44
2022-12-08T02:59:26.360Z,-1
2022-12-08T03:00:26.373Z,-1
2022-12-08T03:01:26.370Z,-0.83
2022-12-08T03:02:26.421Z,-1.11
2022-12-08T03:03:26.369Z,-1
2022-12-08T03:04:26.374Z,-1
2022-12-08T03:05:26.389Z,-1
2022-12-08T03:06:26.359Z,-0.83
2022-12-08T03:07:26.363Z,-0.83
2022-12-08T03:08:26.408Z,-1.28
2022-12-08T03:09:26.371Z,-0.83
2022-12-08T03:10:26.368Z,-1.11
2022-12-08T03:11:26.383Z,-0.83
2022-12-08T03:12:26.370Z,-0.83
2022-12-08T03:13:26.375Z,-0.83
2022-12-08T03:14:26.378Z,-0.83
2022-12-08T03:15:26.371Z,-0.83
2022-12-08T03:16:26.472Z,-0.67
2022-12-08T03:17:26.374Z,-1
2022-12-08T03:18:26.378Z,-0.83
2022-12-08T03:19:26.374Z,-1.11
2022-12-08T03:20:26.375Z,-1
2022-12-08T03:21:26.422Z,-1
2022-12-08T03:22:26.385Z,-1
2022-12-08T03:23:26.378Z,-0.83
2022-12-08T03:24:26.410Z,-1.28
2022-12-08T03:25:26.386Z,-1
2022-12-08T03:26:26.387Z,-1
2022-12-08T03:27:26.389Z,-0.83
2022-12-08T03:28:26.390Z,-1.11
2022-12-08T03:29:26.387Z,-0.83
2022-12-08T03:30:26.386Z,-1.11
2022-12-08T03:31:26.424Z,-0.83
2022-12-08T03:32:26.385Z,-1.11
2022-12-08T03:33:26.376Z,-1.28
2022-12-08T03:34:26.397Z,-1.44
2022-12-08T03:35:26.389Z,-1.11
2022-12-08T03:36:26.373Z,-1.28
2022-12-08T03:37:26.424Z,-1.28
2022-12-08T03:38:26.390Z,-1.28
2022-12-08T03:39:26.403Z,-1.44
2022-12-08T03:40:26.387Z,-0.83
2022-12-08T03:41:26.380Z,-0.83
2022-12-08T03:42:26.387Z,-0.83
2022-12-08T03:43:26.409Z,-0.83
2022-12-08T03:44:26.386Z,-0.83
2022-12-08T03:45:26.396Z,-0.83
2022-12-08T03:47:26.420Z,-0.83
2022-12-08T03:48:26.398Z,-1
2022-12-08T03:49:26.395Z,-1
2022-12-08T03:50:26.380Z,-1.28
2022-12-08T03:51:26.402Z,-1.56
2022-12-08T03:52:26.400Z,-1.28
2022-12-08T03:53:26.419Z,-1
2022-12-08T03:54:26.394Z,-1.11
2022-12-08T03:55:26.405Z,-1.44
2022-12-08T03:56:26.419Z,-1
2022-12-08T03:57:26.403Z,-1.44
2022-12-08T03:58:26.392Z,-1
2022-12-08T03:59:26.397Z,-0.83
2022-12-08T04:00:26.403Z,-0.83
2022-12-08T04:01:26.436Z,-1.11
2022-12-08T04:02:26.451Z,-1
2022-12-08T04:03:26.489Z,-1
2022-12-08T04:04:26.404Z,-0.83
2022-12-08T04:05:26.420Z,-1
2022-12-08T04:06:26.396Z,-1.44
2022-12-08T04:07:26.435Z,-1.11
2022-12-08T04:08:26.439Z,-1.11
2022-12-08T04:09:26.431Z,-1
2022-12-08T04:10:26.398Z,-1.28
2022-12-08T04:11:26.410Z,-1
2022-12-08T04:12:26.430Z,-1.28
2022-12-08T04:13:26.420Z,-1
2022-12-08T04:14:26.413Z,-1
2022-12-08T04:15:26.408Z,-1.11
2022-12-08T04:16:26.418Z,-1
2022-12-08T04:17:26.434Z,-1.11
2022-12-08T04:18:26.408Z,-1.11
2022-12-08T04:19:26.403Z,-1
2022-12-08T04:20:26.414Z,-1.11
2022-12-08T04:21:26.420Z,-0.83
2022-12-08T04:22:26.426Z,-1.11
2022-12-08T04:23:26.432Z,-1.56
2022-12-08T04:24:26.420Z,-1.11
2022-12-08T04:25:26.464Z,-1.28
2022-12-08T04:26:26.431Z,-1.11
2022-12-08T04:27:26.422Z,-1.44
2022-12-08T04:28:26.441Z,-1.56
2022-12-08T04:29:26.442Z,-1.28
2022-12-08T04:30:26.437Z,-1.28
2022-12-08T04:31:26.497Z,-1.28
2022-12-08T04:32:26.428Z,-1.28
2022-12-08T04:33:26.426Z,-1.28
2022-12-08T04:34:26.418Z,-1.44
2022-12-08T04:35:26.422Z,-1.56
2022-12-08T04:36:26.432Z,-1.11
2022-12-08T04:37:26.434Z,-1.11
2022-12-08T04:38:26.453Z,-1.11
2022-12-08T04:39:26.424Z,-1.44
2022-12-08T04:40:26.424Z,-1.56
2022-12-08T04:41:26.465Z,-1.67
2022-12-08T04:42:26.429Z,-1.11
2022-12-08T04:43:26.441Z,-1.11
2022-12-08T04:44:26.442Z,-1.28
2022-12-08T04:45:26.441Z,-1.28
2022-12-08T04:46:26.496Z,-1.28
2022-12-08T04:47:26.434Z,-1.28
2022-12-08T04:48:26.442Z,-1.67
2022-12-08T04:49:26.467Z,-1.28
2022-12-08T04:50:26.422Z,-1.44
2022-12-08T04:51:26.438Z,-1.44
2022-12-08T04:52:26.447Z,-1.44
2022-12-08T04:53:26.430Z,-1.11
2022-12-08T04:54:26.430Z,-1.28
2022-12-08T04:55:26.430Z,-1.28
2022-12-08T04:56:26.441Z,-1.28
2022-12-08T04:57:26.484Z,-1.44
2022-12-08T04:58:26.439Z,-1.11
2022-12-08T04:59:26.432Z,-0.83
2022-12-08T05:00:26.435Z,-1
2022-12-08T05:01:26.501Z,-1
2022-12-08T05:02:26.490Z,-0.83
2022-12-08T05:03:28.643Z,-0.83
2022-12-08T05:04:26.442Z,-0.83
2022-12-08T05:05:26.443Z,-1
2022-12-08T05:06:26.455Z,-0.83
2022-12-08T05:07:26.435Z,-0.83
2022-12-08T05:08:26.518Z,-1.11
2022-12-08T05:09:26.442Z,-1.67
2022-12-08T05:10:26.441Z,-1
2022-12-08T05:11:26.439Z,-0.83
2022-12-08T05:12:26.433Z,-1.11
2022-12-08T05:13:26.467Z,-1.11
2022-12-08T05:14:26.447Z,-1.28
2022-12-08T05:15:26.440Z,-1.11
2022-12-08T05:16:26.591Z,-0.83
2022-12-08T05:17:26.439Z,-1
2022-12-08T05:18:26.439Z,-0.83
2022-12-08T05:19:26.449Z,-0.83
2022-12-08T05:20:26.453Z,-1
2022-12-08T05:21:26.472Z,-1
2022-12-08T05:22:26.463Z,-1.28
2022-12-08T05:23:26.455Z,-1
2022-12-08T05:24:26.446Z,-1
2022-12-08T05:25:26.450Z,-0.83
2022-12-08T05:26:26.451Z,-0.67
2022-12-08T05:27:26.475Z,-0.83
2022-12-08T05:28:43.229Z,-0.83
2022-12-08T05:29:26.467Z,-0.83
2022-12-08T05:30:26.451Z,-0.83
2022-12-08T05:31:26.490Z,-1.44
2022-12-08T05:32:26.458Z,-1
2022-12-08T05:33:26.459Z,-1
2022-12-08T05:34:26.455Z,-0.83
2022-12-08T05:35:26.457Z,-0.83
2022-12-08T05:36:26.464Z,-0.83
2022-12-08T05:37:26.456Z,-1.56
2022-12-08T05:38:26.459Z,-1
2022-12-08T05:39:26.457Z,-1
2022-12-08T05:40:26.464Z,-1.11
2022-12-08T05:41:26.458Z,-0.83
2022-12-08T05:42:26.466Z,-1.11
2022-12-08T05:43:26.474Z,-1.11
2022-12-08T05:44:26.461Z,-1.11
2022-12-08T05:45:26.626Z,-1.11
2022-12-08T05:46:26.549Z,-1.44
2022-12-08T05:47:26.461Z,-1.11
2022-12-08T05:48:26.486Z,-1.28
2022-12-08T05:49:26.465Z,-1.28
2022-12-08T05:50:26.492Z,-1
2022-12-08T05:51:26.477Z,-1.28
2022-12-08T05:52:26.465Z,-1.56
2022-12-08T05:53:26.475Z,-1.28
2022-12-08T05:54:26.477Z,-1.28
2022-12-08T05:55:26.472Z,-1.28
2022-12-08T05:56:26.475Z,-1.28
2022-12-08T05:57:26.481Z,-1.44
2022-12-08T05:58:26.475Z,-1.11
2022-12-08T05:59:26.480Z,-1.44
2022-12-08T06:00:26.471Z,-1.56
2022-12-08T06:01:26.495Z,-1.28
2022-12-08T06:02:26.566Z,-1.11
2022-12-08T06:03:26.541Z,-1.28
2022-12-08T06:04:26.472Z,-1.56
2022-12-08T06:05:26.472Z,-1.11
2022-12-08T06:06:26.470Z,-1.28
2022-12-08T06:07:26.481Z,-1.28
2022-12-08T06:08:26.520Z,-1.28
2022-12-08T06:09:26.475Z,-1.56
2022-12-08T06:10:26.478Z,-1
2022-12-08T06:11:26.492Z,-1.11
2022-12-08T06:12:26.476Z,-1.44
2022-12-08T06:13:26.481Z,-1.11
2022-12-08T06:14:26.486Z,-1.28
2022-12-08T06:15:26.470Z,-1.11
2022-12-08T06:16:26.602Z,-1.11
2022-12-08T06:17:26.499Z,-1.28
2022-12-08T06:18:31.189Z,-1.28
2022-12-08T06:19:26.486Z,-1.11
2022-12-08T06:20:26.478Z,-1.44
2022-12-08T06:21:26.487Z,-1.28
2022-12-08T06:22:26.476Z,-1.28
2022-12-08T06:23:26.480Z,-1.28
2022-12-08T06:24:26.501Z,-1.28
2022-12-08T06:25:26.480Z,-1.56
2022-12-08T06:26:26.487Z,-1.28
2022-12-08T06:27:26.480Z,-1.28
2022-12-08T06:28:26.483Z,-1.44
2022-12-08T06:29:26.485Z,-1.44
2022-12-08T06:30:26.486Z,-1.28
2022-12-08T06:31:26.711Z,-1.56
2022-12-08T06:32:27.652Z,-1.83
2022-12-08T06:33:26.518Z,-1.44
2022-12-08T06:34:26.478Z,-1.28
2022-12-08T06:35:26.483Z,-1.56
2022-12-08T06:36:26.490Z,-1.56
2022-12-08T06:37:26.492Z,-1.28
2022-12-08T06:38:26.524Z,-1.44
2022-12-08T06:39:26.494Z,-1.44
2022-12-08T06:40:26.501Z,-1.28
2022-12-08T06:41:26.517Z,-1
2022-12-08T06:42:26.496Z,-1.11
2022-12-08T06:43:26.495Z,-0.83
2022-12-08T06:44:26.504Z,-1.28
2022-12-08T06:45:26.501Z,-1.11
2022-12-08T06:46:26.574Z,-1.11
2022-12-08T06:47:26.625Z,-1
2022-12-08T06:48:26.500Z,-1.28
2022-12-08T06:49:26.519Z,-1.28
2022-12-08T06:50:26.498Z,-1.28
2022-12-08T06:51:26.497Z,-1.28
2022-12-08T06:52:26.498Z,-1.28
2022-12-08T06:53:26.531Z,-1.67
2022-12-08T06:54:26.500Z,-1.28
2022-12-08T06:55:51.159Z,-1.28
2022-12-08T06:56:26.495Z,-1.28
2022-12-08T06:57:26.497Z,-1.44
2022-12-08T06:58:26.507Z,-1.28
2022-12-08T06:59:26.501Z,-1.28
2022-12-08T07:00:26.498Z,-1.44
2022-12-08T07:01:26.561Z,-1.28
2022-12-08T07:02:26.535Z,-1
2022-12-08T07:03:26.499Z,-1
2022-12-08T07:04:26.509Z,-1.28
2022-12-08T07:05:26.521Z,-1.28
2022-12-08T07:06:26.497Z,-1.67
2022-12-08T07:07:26.504Z,-1.44
2022-12-08T07:08:26.592Z,-1.28
2022-12-08T07:09:26.522Z,-1.11
2022-12-08T07:10:26.507Z,-1.56
2022-12-08T07:11:26.531Z,-1.11
2022-12-08T07:12:26.506Z,-1.44
2022-12-08T07:13:26.529Z,-1.28
2022-12-08T07:14:26.513Z,-1.11
2022-12-08T07:15:26.512Z,-1.11
2022-12-08T07:16:26.554Z,-1.28
2022-12-08T07:17:26.532Z,-0.83
2022-12-08T07:18:26.508Z,-1.28
2022-12-08T07:19:26.533Z,-1
2022-12-08T07:20:26.520Z,-1.11
2022-12-08T07:21:26.527Z,-0.83
2022-12-08T07:22:26.509Z,-1.28
2022-12-08T07:23:26.512Z,-1.28
2022-12-08T07:24:26.510Z,-1
2022-12-08T07:25:26.520Z,-1
2022-12-08T07:26:26.517Z,-1.11
2022-12-08T07:27:26.522Z,-0.83
2022-12-08T07:28:26.533Z,-1.11
2022-12-08T07:29:26.634Z,-1.11
2022-12-08T07:30:26.582Z,-1
2022-12-08T07:31:26.573Z,-1.11
2022-12-08T07:32:26.525Z,-1.11
2022-12-08T07:33:26.524Z,-1
2022-12-08T07:34:26.521Z,-0.83
2022-12-08T07:35:26.516Z,-1
2022-12-08T07:36:26.541Z,-1
2022-12-08T07:37:26.546Z,-0.83
2022-12-08T07:38:26.526Z,-0.83
2022-12-08T07:39:26.559Z,-1
2022-12-08T07:40:26.620Z,-1
2022-12-08T07:41:26.523Z,-1
2022-12-08T07:42:26.529Z,-1.28
2022-12-08T07:43:26.531Z,-1.11
2022-12-08T07:44:26.543Z,-0.83
2022-12-08T07:45:31.373Z,-1
2022-12-08T07:46:26.622Z,-1
2022-12-08T07:47:26.524Z,-1
2022-12-08T07:48:26.539Z,-1
2022-12-08T07:49:26.518Z,-0.67
2022-12-08T07:50:26.531Z,-0.83
2022-12-08T07:51:26.530Z,-1
2022-12-08T07:52:26.525Z,-0.83
2022-12-08T07:53:26.560Z,-0.83
2022-12-08T07:54:26.524Z,-1.28
2022-12-08T07:55:26.530Z,-0.83
2022-12-08T07:56:26.523Z,-1
2022-12-08T07:57:26.536Z,-1.11
2022-12-08T07:58:26.565Z,-0.83
2022-12-08T07:59:26.559Z,-0.83
2022-12-08T08:00:26.539Z,-0.83
2022-12-08T08:01:26.669Z,-1
2022-12-08T08:02:26.749Z,-1
2022-12-08T08:03:26.542Z,-1.11
2022-12-08T08:04:26.589Z,-1
2022-12-08T08:05:26.537Z,-0.83
2022-12-08T08:06:26.530Z,-1
2022-12-08T08:07:26.535Z,-0.83
2022-12-08T08:08:26.605Z,-0.83
2022-12-08T08:09:26.562Z,-1.11
2022-12-08T08:10:26.620Z,-1
2022-12-08T08:11:26.538Z,-0.83
2022-12-08T08:12:31.587Z,-0.56
2022-12-08T08:13:26.534Z,-0.39
2022-12-08T08:14:26.530Z,-0.56
2022-12-08T08:15:26.535Z,-0.56
2022-12-08T08:16:26.605Z,-0.39
2022-12-08T08:17:26.656Z,-0.39
2022-12-08T08:18:26.559Z,-0.39
2022-12-08T08:19:26.538Z,-0.39
2022-12-08T08:20:26.576Z,-0.39
2022-12-08T08:21:44.783Z,-0.56
2022-12-08T08:22:26.539Z,-0.39
2022-12-08T08:23:26.537Z,-0.67
2022-12-08T08:24:26.544Z,-0.39
2022-12-08T08:25:26.565Z,-0.39
2022-12-08T08:26:26.537Z,-0.83
2022-12-08T08:27:26.535Z,-0.39
2022-12-08T08:28:26.542Z,-0.56
2022-12-08T08:29:26.537Z,-0.56
2022-12-08T08:30:26.623Z,-0.39
2022-12-08T08:31:26.589Z,-0.56
2022-12-08T08:32:26.541Z,-0.39
2022-12-08T08:33:26.536Z,-0.39
2022-12-08T08:34:26.536Z,-0.67
2022-12-08T08:35:26.535Z,-0.56
2022-12-08T08:36:26.533Z,-0.39
2022-12-08T08:37:26.611Z,-0.67
2022-12-08T08:38:26.549Z,-0.39
2022-12-08T08:39:26.575Z,-0.67
2022-12-08T08:40:26.594Z,-0.39
2022-12-08T08:41:26.556Z,-0.39
2022-12-08T08:42:26.567Z,-0.56
2022-12-08T08:43:26.544Z,-0.39
2022-12-08T08:44:26.584Z,-0.39
2022-12-08T08:45:26.545Z,-0.39
2022-12-08T08:46:26.650Z,-0.67
2022-12-08T08:47:26.551Z,-0.39
2022-12-08T08:48:26.551Z,-0.28
2022-12-08T08:49:26.558Z,-0.28
2022-12-08T08:50:26.551Z,-0.39
2022-12-08T08:51:26.553Z,-0.28
2022-12-08T08:52:26.548Z,-0.39
2022-12-08T08:53:26.553Z,-0.28
2022-12-08T08:54:26.577Z,-0.17
2022-12-08T08:55:26.543Z,0
2022-12-08T08:56:26.550Z,-0.28
2022-12-08T08:57:26.570Z,-0.17
2022-12-08T08:58:26.551Z,0
2022-12-08T08:59:26.542Z,-0.17
2022-12-08T09:00:26.551Z,0
2022-12-08T09:01:26.581Z,-0.17
2022-12-08T09:02:26.548Z,0
2022-12-08T09:03:26.547Z,0
2022-12-08T09:04:26.607Z,0
2022-12-08T09:05:26.575Z,0
2022-12-08T09:06:26.619Z,0
2022-12-08T09:07:26.563Z,-0.17
2022-12-08T09:08:26.631Z,0
2022-12-08T09:09:26.553Z,-0.17
2022-12-08T09:10:26.553Z,-0.28
2022-12-08T09:11:26.577Z,0.17
2022-12-08T09:12:26.559Z,0.17
2022-12-08T09:13:26.590Z,0
2022-12-08T09:14:26.563Z,0
2022-12-08T09:15:26.576Z,0
2022-12-08T09:16:26.646Z,0
2022-12-08T09:17:26.598Z,0.17
2022-12-08T09:18:26.561Z,-0.17
2022-12-08T09:19:26.552Z,-0.17
2022-12-08T09:20:26.550Z,0.17
2022-12-08T09:21:26.558Z,0.17
2022-12-08T09:22:26.570Z,0.17
2022-12-08T09:23:29.411Z,0
2022-12-08T09:24:26.589Z,0.44
2022-12-08T09:25:26.558Z,0.17
2022-12-08T09:26:26.569Z,-0.28
2022-12-08T09:27:26.558Z,0.17
2022-12-08T09:28:26.552Z,0.28
2022-12-08T09:29:29.850Z,0.28
2022-12-08T09:30:26.559Z,0.17
2022-12-08T09:31:26.639Z,0.44
2022-12-08T09:32:26.566Z,0.61
2022-12-08T09:33:26.565Z,0.44
2022-12-08T09:34:26.568Z,0.44
2022-12-08T09:35:26.565Z,0.44
2022-12-08T09:36:26.562Z,0.44
2022-12-08T09:37:26.596Z,0.28
2022-12-08T09:38:26.570Z,0.44
2022-12-08T09:39:26.594Z,0.44
2022-12-08T09:40:26.559Z,0.44
2022-12-08T09:41:29.408Z,0.28
2022-12-08T09:42:26.565Z,0.61
2022-12-08T09:43:26.570Z,0.28
2022-12-08T09:44:26.597Z,0.61
2022-12-08T09:45:26.597Z,0.61
2022-12-08T09:46:26.595Z,0.28
2022-12-08T09:47:29.456Z,0.44
2022-12-08T09:48:26.571Z,0.17
2022-12-08T09:49:26.566Z,0.61
2022-12-08T09:50:26.581Z,0.44
2022-12-08T09:51:26.571Z,0.44
2022-12-08T09:52:26.564Z,0.44
2022-12-08T09:53:30.678Z,0.44
2022-12-08T09:54:26.575Z,0.28
2022-12-08T09:55:26.586Z,0.61
2022-12-08T09:56:26.572Z,0.61
2022-12-08T09:57:26.567Z,0.72
2022-12-08T09:58:26.576Z,0.61
2022-12-08T09:59:26.577Z,0.89
2022-12-08T10:00:26.592Z,0.72
2022-12-08T10:01:26.644Z,0.72
2022-12-08T10:02:26.574Z,0.89
2022-12-08T10:03:26.573Z,0.89
2022-12-08T10:04:26.579Z,0.61
2022-12-08T10:05:26.618Z,0.72
2022-12-08T10:06:26.570Z,0.89
2022-12-08T10:07:26.568Z,1.06
2022-12-08T10:08:26.644Z,1.06
2022-12-08T10:09:26.573Z,0.89
2022-12-08T10:10:26.569Z,1.06
2022-12-08T10:11:26.573Z,1.06
2022-12-08T10:12:26.573Z,0.89
2022-12-08T10:13:26.572Z,0.89
2022-12-08T10:14:26.627Z,0.72
2022-12-08T10:15:26.574Z,0.89
2022-12-08T10:16:29.675Z,0.28
2022-12-08T10:17:26.601Z,0.61
2022-12-08T10:18:26.570Z,0.89
2022-12-08T10:19:26.578Z,0.89
2022-12-08T10:20:26.578Z,0.89
2022-12-08T10:21:26.613Z,0.89
2022-12-08T10:22:26.572Z,0.61
2022-12-08T10:23:26.585Z,0.89
2022-12-08T10:24:26.576Z,0.89
2022-12-08T10:25:26.571Z,0.61
2022-12-08T10:26:26.578Z,0.61
2022-12-08T10:27:26.563Z,0.61
2022-12-08T10:28:26.624Z,0.61
2022-12-08T10:29:26.610Z,0.44
2022-12-08T10:30:26.582Z,0.44
2022-12-08T10:31:26.654Z,0.89
2022-12-08T10:32:26.578Z,0.89
2022-12-08T10:33:26.606Z,0.89
2022-12-08T10:34:26.580Z,0.89
2022-12-08T10:35:26.585Z,1.06
2022-12-08T10:36:26.572Z,1.33
2022-12-08T10:37:26.577Z,1.17
2022-12-08T10:38:26.580Z,0.89
2022-12-08T10:39:26.582Z,0.89
2022-12-08T10:40:26.583Z,1.17
2022-12-08T10:41:26.572Z,0.72
2022-12-08T10:42:26.608Z,0.72
2022-12-08T10:43:26.580Z,1.5
2022-12-08T10:44:26.582Z,1.06
2022-12-08T10:45:26.585Z,1.17
2022-12-08T10:46:26.648Z,1.5
2022-12-08T10:47:26.591Z,1.33
2022-12-08T10:48:26.575Z,1.33
2022-12-08T10:49:26.651Z,1.33
2022-12-08T10:50:26.583Z,1.33
2022-12-08T10:51:26.579Z,1.33
2022-12-08T10:52:26.581Z,1.33
2022-12-08T10:53:26.585Z,1.5
2022-12-08T10:54:26.581Z,1.61
2022-12-08T10:55:26.588Z,1.89
2022-12-08T10:56:26.584Z,2.17
2022-12-08T10:57:26.611Z,2.17
2022-12-08T10:58:26.599Z,2.17
2022-12-08T10:59:26.613Z,2
2022-12-08T11:00:26.640Z,1.89
2022-12-08T11:01:26.695Z,1.72
2022-12-08T11:02:26.701Z,1.72
2022-12-08T11:03:26.608Z,2
2022-12-08T11:04:26.620Z,2
2022-12-08T11:05:26.607Z,1.89
2022-12-08T11:06:26.594Z,2
2022-12-08T11:07:26.601Z,2
2022-12-08T11:08:26.719Z,2.17
2022-12-08T11:09:26.598Z,1.89
2022-12-08T11:10:26.623Z,2.17
2022-12-08T11:11:29.465Z,2.17
2022-12-08T11:12:26.584Z,2.17
2022-12-08T11:13:26.588Z,2.17
2022-12-08T11:14:26.579Z,1.72
2022-12-08T11:15:26.586Z,1.17
2022-12-08T11:16:26.661Z,0.89
2022-12-08T11:17:26.587Z,1.17
2022-12-08T11:18:26.584Z,1.61
2022-12-08T11:19:26.591Z,1.5
2022-12-08T11:20:26.588Z,1.72
2022-12-08T11:21:26.601Z,1.72
2022-12-08T11:22:26.593Z,1.72
2022-12-08T11:23:26.580Z,1.33
2022-12-08T11:24:26.595Z,1.33
2022-12-08T11:25:26.586Z,1.72
2022-12-08T11:26:26.579Z,1.89
2022-12-08T11:27:26.597Z,1.5
2022-12-08T11:28:26.584Z,1.5
2022-12-08T11:29:26.594Z,1.72
2022-12-08T11:30:26.589Z,1.72
2022-12-08T11:31:26.632Z,2.17
2022-12-08T11:32:26.595Z,2
2022-12-08T11:33:26.586Z,1.61
2022-12-08T11:34:26.596Z,1.61
2022-12-08T11:35:26.594Z,1.72
2022-12-08T11:36:26.602Z,1.61
2022-12-08T11:37:31.305Z,2.44
2022-12-08T11:38:26.596Z,3
2022-12-08T11:39:26.588Z,2.61
2022-12-08T11:40:26.588Z,3
2022-12-08T11:41:26.584Z,2.61
2022-12-08T11:42:26.626Z,2.17
2022-12-08T11:43:26.601Z,1.72
2022-12-08T11:44:26.585Z,1.72
2022-12-08T11:45:26.592Z,2.61
2022-12-08T11:46:26.637Z,2.44
2022-12-08T11:47:26.617Z,1.89
2022-12-08T11:48:26.586Z,2.44
2022-12-08T11:49:26.593Z,2.89
2022-12-08T11:50:26.616Z,3
2022-12-08T11:51:26.589Z,3.44
2022-12-08T11:52:26.596Z,3.83
2022-12-08T11:53:26.617Z,3.83
2022-12-08T11:54:26.597Z,3.56
2022-12-08T11:55:26.593Z,3
2022-12-08T11:56:26.596Z,2.61
2022-12-08T11:57:26.608Z,2.72
2022-12-08T11:58:26.665Z,2
2022-12-08T11:59:26.604Z,2.61
2022-12-08T12:00:26.604Z,2.61
2022-12-08T12:01:26.604Z,2.61
2022-12-08T12:02:26.676Z,3.33
2022-12-08T12:03:26.669Z,3.56
2022-12-08T12:04:26.596Z,3.33
2022-12-08T12:05:40.069Z,3.28
2022-12-08T12:06:55.848Z,2.44
2022-12-08T12:07:26.766Z,2.22
2022-12-08T12:08:26.627Z,2.17
2022-12-08T12:09:26.619Z,2.17
2022-12-08T12:10:26.591Z,2.44
2022-12-08T12:11:26.592Z,2.44
2022-12-08T12:12:26.603Z,3
2022-12-08T12:13:26.588Z,2.61
2022-12-08T12:14:26.606Z,2.11
2022-12-08T12:15:26.594Z,2
2022-12-08T12:16:26.612Z,2
2022-12-08T12:17:26.594Z,2.11
2022-12-08T12:18:26.599Z,2.28
2022-12-08T12:19:26.586Z,2.28
2022-12-08T12:20:26.600Z,2.72
2022-12-08T12:21:26.596Z,2.83
2022-12-08T12:22:26.627Z,2.39
2022-12-08T12:23:26.598Z,2.39
2022-12-08T12:24:29.400Z,2.28
2022-12-08T12:25:26.628Z,2.28
2022-12-08T12:26:26.631Z,2.56
2022-12-08T12:27:26.597Z,2.72
2022-12-08T12:28:26.613Z,2
2022-12-08T12:29:26.669Z,2.28
2022-12-08T12:30:26.678Z,2
2022-12-08T12:31:26.655Z,2.11
2022-12-08T12:32:26.615Z,2.28
2022-12-08T12:33:26.615Z,2.39
2022-12-08T12:34:26.607Z,1.83
2022-12-08T12:35:27.409Z,1.83
2022-12-08T12:36:26.670Z,1.56
2022-12-08T12:37:26.622Z,1.44
2022-12-08T12:38:26.625Z,2.28
2022-12-08T12:39:26.618Z,1.72
2022-12-08T12:40:26.624Z,1.72
2022-12-08T12:41:26.651Z,1.44
2022-12-08T12:42:26.638Z,1.72
2022-12-08T12:43:26.625Z,1.28
2022-12-08T12:44:26.634Z,1.28
2022-12-08T12:45:26.625Z,1.44
2022-12-08T12:46:26.670Z,1.28
2022-12-08T12:47:26.631Z,1.56
2022-12-08T12:48:26.630Z,1.56
2022-12-08T12:49:26.669Z,1.56
2022-12-08T12:50:26.635Z,2
2022-12-08T12:51:26.636Z,2.28
2022-12-08T12:52:26.665Z,2
2022-12-08T12:53:26.626Z,2.11
2022-12-08T12:54:26.648Z,2.39
2022-12-08T12:55:26.643Z,1.83
2022-12-08T12:56:26.644Z,1.83
2022-12-08T12:57:26.667Z,1.56
2022-12-08T12:58:26.638Z,1.56
2022-12-08T12:59:26.631Z,1.56
2022-12-08T13:00:26.640Z,2
2022-12-08T13:01:26.705Z,1.83
2022-12-08T13:02:26.671Z,2.28
2022-12-08T13:03:26.643Z,1.56
2022-12-08T13:04:26.642Z,1.44
2022-12-08T13:05:26.644Z,1.83
2022-12-08T13:06:26.650Z,2
2022-12-08T13:07:26.635Z,1.83
2022-12-08T13:08:26.709Z,1.83
2022-12-08T13:09:26.631Z,2.39
2022-12-08T13:10:26.678Z,2.39
2022-12-08T13:11:26.659Z,2
2022-12-08T13:12:26.653Z,2
2022-12-08T13:13:26.732Z,2.11
2022-12-08T13:14:26.645Z,2